TimeMDT,TemperatureF,Dew PointF,Humidity,Sea Level PressureIn,VisibilityMPH,Wind Direction,Wind SpeedMPH,Gust SpeedMPH,PrecipitationIn,Events,Conditions,WindDirDegrees,DateUTC
12:52 AM,60.1,7.0,12,29.93,10.0,Calm,Calm,-,N/A,,Overcast,0,2013-03-28 06:52:00
1:52 AM,53.1,7.0,16,29.96,10.0,SE,6.9,-,N/A,,Overcast,140,2013-03-28 07:52:00
2:52 AM,54.0,8.1,16,29.95,10.0,South,6.9,-,N/A,,Overcast,170,2013-03-28 08:52:00
3:52 AM,53.1,9.0,17,29.94,10.0,South,5.8,-,N/A,,Mostly Cloudy,180,2013-03-28 09:52:00
4:52 AM,54.0,10.0,17,29.93,10.0,SSW,5.8,-,N/A,,Mostly Cloudy,200,2013-03-28 10:52:00
5:52 AM,52.0,10.0,19,29.96,10.0,Calm,Calm,-,N/A,,Scattered Clouds,0,2013-03-28 11:52:00
6:52 AM,46.9,10.0,22,29.99,10.0,ESE,3.5,-,N/A,,Scattered Clouds,110,2013-03-28 12:52:00
7:52 AM,48.9,12.0,23,30.00,10.0,SE,6.9,-,N/A,,Scattered Clouds,130,2013-03-28 13:52:00
8:52 AM,55.0,12.9,19,30.01,10.0,SE,5.8,-,N/A,,Scattered Clouds,130,2013-03-28 14:52:00
9:52 AM,60.1,12.9,16,30.01,10.0,SW,3.5,-,N/A,,Scattered Clouds,230,2013-03-28 15:52:00
10:52 AM,62.1,15.1,16,30.01,10.0,Calm,Calm,-,N/A,,Scattered Clouds,0,2013-03-28 16:52:00
11:52 AM,66.0,12.0,12,29.98,10.0,SSW,5.8,-,N/A,,Scattered Clouds,210,2013-03-28 17:52:00
12:52 PM,69.1,8.1,9,29.96,10.0,West,11.5,18.4,N/A,,Mostly Cloudy,280,2013-03-28 18:52:00
1:52 PM,66.9,10.0,11,29.97,10.0,SW,10.4,-,N/A,,Mostly Cloudy,220,2013-03-28 19:52:00
2:52 PM,71.1,10.9,10,29.92,10.0,Variable,5.8,16.1,N/A,,Mostly Cloudy,0,2013-03-28 20:52:00
3:52 PM,71.1,12.0,10,29.90,10.0,Variable,5.8,-,N/A,,Mostly Cloudy,0,2013-03-28 21:52:00
4:52 PM,71.1,14.0,11,29.89,10.0,WNW,8.1,23.0,N/A,,Mostly Cloudy,300,2013-03-28 22:52:00
5:52 PM,70.0,14.0,12,29.90,10.0,WSW,10.4,-,N/A,,Mostly Cloudy,240,2013-03-28 23:52:00
6:52 PM,68.0,17.1,14,29.95,10.0,SSW,9.2,32.2,N/A,,Mostly Cloudy,210,2013-03-29 00:52:00
7:52 PM,66.9,18.0,15,29.96,10.0,WSW,6.9,25.3,N/A,,Overcast,240,2013-03-29 01:52:00
8:52 PM,64.9,19.0,17,29.95,10.0,East,6.9,-,N/A,,Overcast,100,2013-03-29 02:52:00
9:52 PM,66.0,19.9,17,29.95,10.0,South,18.4,27.6,N/A,,Overcast,170,2013-03-29 03:52:00
10:52 PM,60.1,21.0,22,29.97,10.0,SSE,5.8,-,N/A,,Mostly Cloudy,150,2013-03-29 04:52:00
11:52 PM,57.9,21.0,24,29.97,10.0,South,3.5,-,N/A,,Mostly Cloudy,170,2013-03-29 05:52:00